sensor_id;sensor_type;location;lat;lon;timestamp;pressure;altitude;pressure_sealevel;temperature;humidity
15646;BME280;7922;43.622;1.476;2023-03-14T00:01:48;99558.94;;;8.65;90.78
15646;BME280;7922;43.622;1.476;2023-03-14T00:04:13;99624.41;;;9.00;90.63
15646;BME280;7922;43.622;1.476;2023-03-14T00:06:38;99583.63;;;8.86;89.93
15646;BME280;7922;43.622;1.476;2023-03-14T00:09:04;99628.94;;;9.18;89.64
15646;BME280;7922;43.622;1.476;2023-03-14T00:11:29;99579.13;;;9.09;89.13
15646;BME280;7922;43.622;1.476;2023-03-14T00:13:54;99580.97;;;9.07;89.22
15646;BME280;7922;43.622;1.476;2023-03-14T00:16:22;99570.84;;;8.96;89.89
15646;BME280;7922;43.622;1.476;2023-03-14T00:18:47;99632.38;;;9.20;90.04
15646;BME280;7922;43.622;1.476;2023-03-14T00:21:13;99676.66;;;9.35;90.07
15646;BME280;7922;43.622;1.476;2023-03-14T00:23:40;99714.94;;;9.68;90.20
15646;BME280;7922;43.622;1.476;2023-03-14T00:26:11;99546.84;;;8.60;89.83
15646;BME280;7922;43.622;1.476;2023-03-14T00:28:37;99656.94;;;9.22;90.22
15646;BME280;7922;43.622;1.476;2023-03-14T00:31:04;99577.91;;;8.75;89.77
15646;BME280;7922;43.622;1.476;2023-03-14T00:33:29;99639.66;;;9.15;89.14
15646;BME280;7922;43.622;1.476;2023-03-14T00:36:06;99731.09;;;9.82;89.09
15646;BME280;7922;43.622;1.476;2023-03-14T00:38:32;99689.22;;;9.71;88.28
15646;BME280;7922;43.622;1.476;2023-03-14T00:40:58;99713.03;;;9.92;87.82
15646;BME280;7922;43.622;1.476;2023-03-14T00:43:24;99742.03;;;10.13;87.72
15646;BME280;7922;43.622;1.476;2023-03-14T00:45:50;99634.88;;;9.64;86.54
15646;BME280;7922;43.622;1.476;2023-03-14T00:48:17;99659.91;;;9.76;86.14
15646;BME280;7922;43.622;1.476;2023-03-14T00:50:43;99643.38;;;9.52;86.98
15646;BME280;7922;43.622;1.476;2023-03-14T00:53:08;99655.69;;;9.51;86.92
15646;BME280;7922;43.622;1.476;2023-03-14T00:55:40;99671.63;;;9.50;86.62
15646;BME280;7922;43.622;1.476;2023-03-14T00:58:05;99537.81;;;8.86;86.43
15646;BME280;7922;43.622;1.476;2023-03-14T01:00:31;99685.66;;;9.72;86.38
15646;BME280;7922;43.622;1.476;2023-03-14T01:02:57;99578.41;;;9.05;86.32
15646;BME280;7922;43.622;1.476;2023-03-14T01:05:22;99599.13;;;9.14;86.28
15646;BME280;7922;43.622;1.476;2023-03-14T01:07:48;99651.63;;;9.44;86.10
15646;BME280;7922;43.622;1.476;2023-03-14T01:10:13;99690.59;;;9.80;85.35
15646;BME280;7922;43.622;1.476;2023-03-14T01:12:38;99663.75;;;9.69;84.64
15646;BME280;7922;43.622;1.476;2023-03-14T01:15:04;99646.66;;;9.57;84.52
15646;BME280;7922;43.622;1.476;2023-03-14T01:17:30;99652.41;;;9.67;83.16
15646;BME280;7922;43.622;1.476;2023-03-14T01:19:55;99562.59;;;9.24;82.45
15646;BME280;7922;43.622;1.476;2023-03-14T01:22:20;99637.41;;;9.67;82.13
15646;BME280;7922;43.622;1.476;2023-03-14T01:24:45;99566.06;;;9.26;81.53
15646;BME280;7922;43.622;1.476;2023-03-14T01:27:11;99676.97;;;9.89;81.15
15646;BME280;7922;43.622;1.476;2023-03-14T01:29:36;99706.31;;;10.03;81.08
15646;BME280;7922;43.622;1.476;2023-03-14T01:32:01;99569.34;;;9.31;81.33
15646;BME280;7922;43.622;1.476;2023-03-14T01:34:26;99667.50;;;9.83;81.34
15646;BME280;7922;43.622;1.476;2023-03-14T01:36:52;99525.63;;;9.04;80.79
15646;BME280;7922;43.622;1.476;2023-03-14T01:39:17;99671.81;;;9.86;81.80
15646;BME280;7922;43.622;1.476;2023-03-14T01:41:42;99715.84;;;10.07;81.12
15646;BME280;7922;43.622;1.476;2023-03-14T01:44:12;99608.09;;;9.51;81.03
15646;BME280;7922;43.622;1.476;2023-03-14T01:46:40;99655.34;;;9.79;79.62
15646;BME280;7922;43.622;1.476;2023-03-14T01:49:11;99546.25;;;9.55;77.54
15646;BME280;7922;43.622;1.476;2023-03-14T01:54:37;99706.38;;;10.98;75.07
15646;BME280;7922;43.622;1.476;2023-03-14T01:57:10;99665.25;;;10.72;74.42
15646;BME280;7922;43.622;1.476;2023-03-14T01:59:37;99556.41;;;10.21;74.64
15646;BME280;7922;43.622;1.476;2023-03-14T02:02:05;99624.22;;;10.62;74.04
15646;BME280;7922;43.622;1.476;2023-03-14T02:04:33;99523.03;;;10.00;74.72
15646;BME280;7922;43.622;1.476;2023-03-14T02:07:00;99710.22;;;11.09;74.46
15646;BME280;7922;43.622;1.476;2023-03-14T02:09:28;99656.97;;;10.78;74.65
15646;BME280;7922;43.622;1.476;2023-03-14T02:11:55;99553.56;;;10.26;74.67
15646;BME280;7922;43.622;1.476;2023-03-14T02:14:27;99670.97;;;10.99;74.39
15646;BME280;7922;43.622;1.476;2023-03-14T02:16:53;99664.28;;;11.09;73.57
15646;BME280;7922;43.622;1.476;2023-03-14T02:19:26;99560.09;;;10.55;73.72
15646;BME280;7922;43.622;1.476;2023-03-14T02:22:06;99690.03;;;11.24;74.57
15646;BME280;7922;43.622;1.476;2023-03-14T02:27:24;99556.75;;;10.51;73.94
15646;BME280;7922;43.622;1.476;2023-03-14T02:29:57;99695.03;;;11.30;74.18
15646;BME280;7922;43.622;1.476;2023-03-14T02:32:25;99607.66;;;10.75;74.78
15646;BME280;7922;43.622;1.476;2023-03-14T02:34:54;99592.06;;;10.69;74.74
15646;BME280;7922;43.622;1.476;2023-03-14T02:37:23;99641.69;;;11.02;75.06
15646;BME280;7922;43.622;1.476;2023-03-14T02:39:48;99620.00;;;10.94;73.71
15646;BME280;7922;43.622;1.476;2023-03-14T02:42:14;99548.78;;;10.51;74.36
15646;BME280;7922;43.622;1.476;2023-03-14T02:47:16;99548.31;;;10.43;76.48
15646;BME280;7922;43.622;1.476;2023-03-14T02:49:41;99711.19;;;11.26;76.22
15646;BME280;7922;43.622;1.476;2023-03-14T02:52:07;99584.53;;;10.43;76.90
15646;BME280;7922;43.622;1.476;2023-03-14T02:54:32;99681.03;;;10.73;79.03
15646;BME280;7922;43.622;1.476;2023-03-14T02:56:58;99689.13;;;10.70;78.76
15646;BME280;7922;43.622;1.476;2023-03-14T02:59:23;99676.53;;;10.56;79.25
15646;BME280;7922;43.622;1.476;2023-03-14T03:01:48;99600.47;;;10.03;80.02
15646;BME280;7922;43.622;1.476;2023-03-14T03:04:13;99680.28;;;10.52;77.18
15646;BME280;7922;43.622;1.476;2023-03-14T03:06:39;99537.66;;;9.69;76.24
15646;BME280;7922;43.622;1.476;2023-03-14T03:09:04;99487.72;;;9.44;74.71
15646;BME280;7922;43.622;1.476;2023-03-14T03:11:29;99502.94;;;9.58;73.53
15646;BME280;7922;43.622;1.476;2023-03-14T03:13:54;99564.28;;;10.04;73.54
15646;BME280;7922;43.622;1.476;2023-03-14T03:16:20;99647.59;;;10.53;70.79
15646;BME280;7922;43.622;1.476;2023-03-14T03:18:45;99643.28;;;10.51;70.89
15646;BME280;7922;43.622;1.476;2023-03-14T03:21:10;99626.34;;;10.36;70.60
15646;BME280;7922;43.622;1.476;2023-03-14T03:23:36;99567.78;;;10.04;70.56
15646;BME280;7922;43.622;1.476;2023-03-14T03:26:01;99566.94;;;10.04;70.27
15646;BME280;7922;43.622;1.476;2023-03-14T03:28:26;99565.94;;;10.06;70.31
15646;BME280;7922;43.622;1.476;2023-03-14T03:30:51;99619.81;;;10.43;70.25
15646;BME280;7922;43.622;1.476;2023-03-14T03:33:17;99594.47;;;10.19;71.16
15646;BME280;7922;43.622;1.476;2023-03-14T03:35:49;99706.59;;;10.93;70.97
15646;BME280;7922;43.622;1.476;2023-03-14T03:38:15;99696.38;;;10.67;72.34
15646;BME280;7922;43.622;1.476;2023-03-14T03:40:41;99567.44;;;9.93;72.97
15646;BME280;7922;43.622;1.476;2023-03-14T03:43:06;99690.50;;;10.60;73.70
15646;BME280;7922;43.622;1.476;2023-03-14T03:45:31;99592.94;;;9.94;74.63
15646;BME280;7922;43.622;1.476;2023-03-14T03:47:57;99650.03;;;10.19;75.74
15646;BME280;7922;43.622;1.476;2023-03-14T03:50:22;99649.25;;;10.17;75.08
15646;BME280;7922;43.622;1.476;2023-03-14T03:52:47;99689.78;;;10.38;75.99
15646;BME280;7922;43.622;1.476;2023-03-14T03:55:13;99676.50;;;10.19;76.56
15646;BME280;7922;43.622;1.476;2023-03-14T03:57:38;99632.94;;;9.88;78.03
15646;BME280;7922;43.622;1.476;2023-03-14T04:00:04;99681.84;;;9.98;77.04
15646;BME280;7922;43.622;1.476;2023-03-14T04:02:30;99774.03;;;10.48;76.78
15646;BME280;7922;43.622;1.476;2023-03-14T04:04:55;99674.53;;;9.84;78.14
15646;BME280;7922;43.622;1.476;2023-03-14T04:07:21;99670.44;;;9.57;79.70
15646;BME280;7922;43.622;1.476;2023-03-14T04:09:46;99795.63;;;10.19;81.86
15646;BME280;7922;43.622;1.476;2023-03-14T04:12:11;99715.00;;;9.46;83.23
15646;BME280;7922;43.622;1.476;2023-03-14T04:14:36;99748.59;;;9.64;84.31
15646;BME280;7922;43.622;1.476;2023-03-14T04:17:02;99702.81;;;9.21;85.49
15646;BME280;7922;43.622;1.476;2023-03-14T04:19:27;99670.69;;;8.88;85.86
15646;BME280;7922;43.622;1.476;2023-03-14T04:21:52;99657.63;;;8.85;86.90
15646;BME280;7922;43.622;1.476;2023-03-14T04:24:17;99646.38;;;8.80;87.93
15646;BME280;7922;43.622;1.476;2023-03-14T04:26:43;99754.28;;;9.33;88.31
15646;BME280;7922;43.622;1.476;2023-03-14T04:29:08;99622.31;;;8.65;87.54
15646;BME280;7922;43.622;1.476;2023-03-14T04:31:33;99726.47;;;9.24;86.80
15646;BME280;7922;43.622;1.476;2023-03-14T04:33:59;99667.00;;;8.92;87.33
15646;BME280;7922;43.622;1.476;2023-03-14T04:36:24;99776.88;;;9.42;87.69
15646;BME280;7922;43.622;1.476;2023-03-14T04:38:49;99791.22;;;9.56;87.38
15646;BME280;7922;43.622;1.476;2023-03-14T04:41:14;99763.09;;;9.33;87.58
15646;BME280;7922;43.622;1.476;2023-03-14T04:43:40;99803.84;;;9.50;86.35
15646;BME280;7922;43.622;1.476;2023-03-14T04:46:05;99807.03;;;9.58;86.23
15646;BME280;7922;43.622;1.476;2023-03-14T04:48:31;99716.75;;;9.03;86.53
15646;BME280;7922;43.622;1.476;2023-03-14T04:50:56;99785.78;;;9.39;86.91
15646;BME280;7922;43.622;1.476;2023-03-14T04:53:21;99828.00;;;9.62;87.18
15646;BME280;7922;43.622;1.476;2023-03-14T04:55:51;99806.38;;;9.53;87.10
15646;BME280;7922;43.622;1.476;2023-03-14T04:58:18;99825.28;;;9.64;87.65
15646;BME280;7922;43.622;1.476;2023-03-14T05:00:44;99712.88;;;8.89;87.94
15646;BME280;7922;43.622;1.476;2023-03-14T05:03:09;99781.88;;;9.26;89.19
15646;BME280;7922;43.622;1.476;2023-03-14T05:05:34;99810.06;;;9.27;89.71
15646;BME280;7922;43.622;1.476;2023-03-14T05:08:00;99808.03;;;9.33;89.69
15646;BME280;7922;43.622;1.476;2023-03-14T05:10:25;99811.28;;;9.40;89.33
15646;BME280;7922;43.622;1.476;2023-03-14T05:12:50;99829.50;;;9.48;89.56
15646;BME280;7922;43.622;1.476;2023-03-14T05:15:15;99671.75;;;8.62;89.27
15646;BME280;7922;43.622;1.476;2023-03-14T05:17:41;99688.38;;;8.64;89.29
15646;BME280;7922;43.622;1.476;2023-03-14T05:20:06;99795.25;;;9.23;89.92
15646;BME280;7922;43.622;1.476;2023-03-14T05:22:32;99718.44;;;8.83;89.50
15646;BME280;7922;43.622;1.476;2023-03-14T05:24:57;99702.03;;;8.75;89.03
15646;BME280;7922;43.622;1.476;2023-03-14T05:27:23;99705.91;;;8.88;88.57
15646;BME280;7922;43.622;1.476;2023-03-14T05:29:48;99806.59;;;9.47;88.08
15646;BME280;7922;43.622;1.476;2023-03-14T05:32:13;99823.94;;;9.54;87.77
15646;BME280;7922;43.622;1.476;2023-03-14T05:34:38;99807.28;;;9.52;87.83
15646;BME280;7922;43.622;1.476;2023-03-14T05:37:04;99831.13;;;9.72;86.99
15646;BME280;7922;43.622;1.476;2023-03-14T05:39:29;99814.78;;;9.62;86.96
15646;BME280;7922;43.622;1.476;2023-03-14T05:41:54;99819.94;;;9.65;86.72
15646;BME280;7922;43.622;1.476;2023-03-14T05:44:20;99725.13;;;9.14;85.88
15646;BME280;7922;43.622;1.476;2023-03-14T05:46:45;99889.97;;;9.99;86.27
15646;BME280;7922;43.622;1.476;2023-03-14T05:49:10;99680.09;;;8.73;86.59
15646;BME280;7922;43.622;1.476;2023-03-14T05:51:35;99857.69;;;9.69;87.39
15646;BME280;7922;43.622;1.476;2023-03-14T05:54:01;99741.09;;;8.89;88.09
15646;BME280;7922;43.622;1.476;2023-03-14T05:56:26;99851.97;;;9.36;89.65
15646;BME280;7922;43.622;1.476;2023-03-14T05:58:51;99763.00;;;8.69;92.37
15646;BME280;7922;43.622;1.476;2023-03-14T06:01:16;99880.13;;;9.15;94.33
15646;BME280;7922;43.622;1.476;2023-03-14T06:03:42;99869.16;;;9.02;95.55
15646;BME280;7922;43.622;1.476;2023-03-14T06:06:07;99791.72;;;8.55;95.86
15646;BME280;7922;43.622;1.476;2023-03-14T06:08:32;99854.00;;;8.84;95.61
15646;BME280;7922;43.622;1.476;2023-03-14T06:10:58;99912.97;;;9.31;93.79
15646;BME280;7922;43.622;1.476;2023-03-14T06:13:23;99756.19;;;8.40;93.22
15646;BME280;7922;43.622;1.476;2023-03-14T06:15:48;99889.66;;;9.19;92.08
15646;BME280;7922;43.622;1.476;2023-03-14T06:18:13;99874.66;;;9.20;91.22
15646;BME280;7922;43.622;1.476;2023-03-14T06:20:39;99870.75;;;9.06;91.67
15646;BME280;7922;43.622;1.476;2023-03-14T06:23:07;99798.41;;;8.63;92.40
15646;BME280;7922;43.622;1.476;2023-03-14T06:25:34;99830.56;;;8.75;92.42
15646;BME280;7922;43.622;1.476;2023-03-14T06:27:59;99904.41;;;9.01;91.93
15646;BME280;7922;43.622;1.476;2023-03-14T06:30:25;99932.34;;;9.08;92.65
15646;BME280;7922;43.622;1.476;2023-03-14T06:32:50;99788.53;;;8.20;92.68
15646;BME280;7922;43.622;1.476;2023-03-14T06:35:15;99941.06;;;9.10;92.76
15646;BME280;7922;43.622;1.476;2023-03-14T06:37:41;99821.31;;;8.39;93.60
15646;BME280;7922;43.622;1.476;2023-03-14T06:40:07;99884.47;;;8.69;94.56
15646;BME280;7922;43.622;1.476;2023-03-14T06:42:33;99974.16;;;9.21;94.36
15646;BME280;7922;43.622;1.476;2023-03-14T06:44:58;99897.09;;;8.84;93.83
15646;BME280;7922;43.622;1.476;2023-03-14T06:47:23;99796.13;;;8.29;94.11
15646;BME280;7922;43.622;1.476;2023-03-14T06:49:48;99917.09;;;8.91;94.10
15646;BME280;7922;43.622;1.476;2023-03-14T06:52:14;99960.25;;;9.15;94.51
15646;BME280;7922;43.622;1.476;2023-03-14T06:54:39;99828.59;;;8.31;95.70
15646;BME280;7922;43.622;1.476;2023-03-14T06:57:04;99924.34;;;8.86;95.86
15646;BME280;7922;43.622;1.476;2023-03-14T06:59:30;99960.00;;;8.98;95.48
15646;BME280;7922;43.622;1.476;2023-03-14T07:01:55;99937.88;;;8.77;95.85
15646;BME280;7922;43.622;1.476;2023-03-14T07:04:20;99972.41;;;8.96;96.42
15646;BME280;7922;43.622;1.476;2023-03-14T07:06:45;100047.13;;;9.25;96.00
15646;BME280;7922;43.622;1.476;2023-03-14T07:09:11;100034.88;;;9.22;95.65
15646;BME280;7922;43.622;1.476;2023-03-14T07:11:37;99885.66;;;8.35;94.28
15646;BME280;7922;43.622;1.476;2023-03-14T07:14:02;99910.13;;;8.40;95.39
15646;BME280;7922;43.622;1.476;2023-03-14T07:16:28;100000.69;;;8.67;96.15
15646;BME280;7922;43.622;1.476;2023-03-14T07:18:53;99891.25;;;8.00;98.61
15646;BME280;7922;43.622;1.476;2023-03-14T07:21:18;100020.56;;;8.79;99.45
15646;BME280;7922;43.622;1.476;2023-03-14T07:23:44;99888.41;;;8.06;99.71
15646;BME280;7922;43.622;1.476;2023-03-14T07:26:09;100030.00;;;8.86;99.57
15646;BME280;7922;43.622;1.476;2023-03-14T07:28:34;100011.22;;;8.69;98.67
15646;BME280;7922;43.622;1.476;2023-03-14T07:30:59;99884.25;;;7.99;98.32
15646;BME280;7922;43.622;1.476;2023-03-14T07:33:25;100010.31;;;8.70;98.87
15646;BME280;7922;43.622;1.476;2023-03-14T07:35:50;100052.41;;;9.00;98.40
15646;BME280;7922;43.622;1.476;2023-03-14T07:38:16;100067.84;;;9.12;97.68
15646;BME280;7922;43.622;1.476;2023-03-14T07:40:42;99933.06;;;8.38;97.80
15646;BME280;7922;43.622;1.476;2023-03-14T07:43:07;99979.75;;;8.63;97.78
15646;BME280;7922;43.622;1.476;2023-03-14T07:45:32;100015.97;;;8.84;96.16
15646;BME280;7922;43.622;1.476;2023-03-14T07:47:58;99930.03;;;8.49;95.41
15646;BME280;7922;43.622;1.476;2023-03-14T07:50:26;100016.44;;;9.21;93.92
15646;BME280;7922;43.622;1.476;2023-03-14T07:52:51;99956.53;;;8.96;92.27
15646;BME280;7922;43.622;1.476;2023-03-14T07:55:17;100063.00;;;9.73;91.03
15646;BME280;7922;43.622;1.476;2023-03-14T07:57:42;99923.78;;;9.02;91.98
15646;BME280;7922;43.622;1.476;2023-03-14T08:00:09;100106.44;;;10.13;90.06
15646;BME280;7922;43.622;1.476;2023-03-14T08:02:35;99968.81;;;9.46;90.13
15646;BME280;7922;43.622;1.476;2023-03-14T08:05:00;100076.09;;;10.22;90.08
15646;BME280;7922;43.622;1.476;2023-03-14T08:07:25;100086.84;;;10.41;89.26
15646;BME280;7922;43.622;1.476;2023-03-14T08:09:51;100030.41;;;10.17;88.18
15646;BME280;7922;43.622;1.476;2023-03-14T08:12:16;100047.91;;;9.99;87.88
15646;BME280;7922;43.622;1.476;2023-03-14T08:14:41;99965.84;;;9.77;87.35
15646;BME280;7922;43.622;1.476;2023-03-14T08:17:07;99955.63;;;9.68;84.74
15646;BME280;7922;43.622;1.476;2023-03-14T08:19:32;100090.84;;;10.51;85.61
15646;BME280;7922;43.622;1.476;2023-03-14T08:21:57;100087.66;;;10.65;85.32
15646;BME280;7922;43.622;1.476;2023-03-14T08:24:22;100139.84;;;11.05;83.71
15646;BME280;7922;43.622;1.476;2023-03-14T08:26:48;100162.13;;;11.21;83.04
15646;BME280;7922;43.622;1.476;2023-03-14T08:29:13;100095.91;;;10.99;81.39
15646;BME280;7922;43.622;1.476;2023-03-14T08:31:38;100087.41;;;11.32;80.88
15646;BME280;7922;43.622;1.476;2023-03-14T08:34:03;100145.19;;;11.66;80.60
15646;BME280;7922;43.622;1.476;2023-03-14T08:36:29;100174.50;;;11.84;79.77
15646;BME280;7922;43.622;1.476;2023-03-14T08:38:54;100159.25;;;11.48;81.01
15646;BME280;7922;43.622;1.476;2023-03-14T08:41:20;100063.41;;;10.74;81.44
15646;BME280;7922;43.622;1.476;2023-03-14T08:43:45;100139.00;;;11.04;80.63
15646;BME280;7922;43.622;1.476;2023-03-14T08:46:11;100139.66;;;11.09;81.08
15646;BME280;7922;43.622;1.476;2023-03-14T08:48:36;100122.84;;;10.89;80.67
15646;BME280;7922;43.622;1.476;2023-03-14T08:53:31;100126.94;;;10.97;81.85
15646;BME280;7922;43.622;1.476;2023-03-14T08:55:56;100156.81;;;11.21;82.41
15646;BME280;7922;43.622;1.476;2023-03-14T08:58:21;100045.16;;;10.46;81.85
15646;BME280;7922;43.622;1.476;2023-03-14T09:00:47;100070.66;;;10.48;81.20
15646;BME280;7922;43.622;1.476;2023-03-14T09:03:12;100162.97;;;11.01;81.50
15646;BME280;7922;43.622;1.476;2023-03-14T09:05:37;100181.22;;;11.09;81.04
15646;BME280;7922;43.622;1.476;2023-03-14T09:08:02;100052.94;;;10.28;80.48
15646;BME280;7922;43.622;1.476;2023-03-14T09:10:28;100053.41;;;10.38;81.87
15646;BME280;7922;43.622;1.476;2023-03-14T09:12:53;100142.00;;;10.75;82.28
15646;BME280;7922;43.622;1.476;2023-03-14T09:15:18;100225.63;;;10.58;83.41
15646;BME280;7922;43.622;1.476;2023-03-14T09:17:44;100087.72;;;7.57;88.67
15646;BME280;7922;43.622;1.476;2023-03-14T09:20:09;100270.91;;;8.07;91.29
15646;BME280;7922;43.622;1.476;2023-03-14T09:22:35;100131.81;;;7.17;93.05
15646;BME280;7922;43.622;1.476;2023-03-14T09:25:02;100104.66;;;6.81;92.95
15646;BME280;7922;43.622;1.476;2023-03-14T09:27:28;100173.75;;;7.27;93.91
15646;BME280;7922;43.622;1.476;2023-03-14T09:29:53;100189.34;;;7.34;94.03
15646;BME280;7922;43.622;1.476;2023-03-14T09:32:18;100252.34;;;7.78;95.76
15646;BME280;7922;43.622;1.476;2023-03-14T09:34:44;100120.84;;;7.00;95.58
15646;BME280;7922;43.622;1.476;2023-03-14T09:37:09;100113.53;;;7.11;92.87
15646;BME280;7922;43.622;1.476;2023-03-14T09:39:34;100120.84;;;7.34;92.43
15646;BME280;7922;43.622;1.476;2023-03-14T09:42:02;100249.03;;;8.64;89.12
15646;BME280;7922;43.622;1.476;2023-03-14T09:44:42;100208.88;;;8.53;91.00
15646;BME280;7922;43.622;1.476;2023-03-14T09:47:12;100203.41;;;8.87;91.87
15646;BME280;7922;43.622;1.476;2023-03-14T09:49:40;100105.44;;;8.68;91.82
15646;BME280;7922;43.622;1.476;2023-03-14T09:52:13;100167.09;;;9.21;90.89
15646;BME280;7922;43.622;1.476;2023-03-14T09:54:49;100228.97;;;9.67;91.48
15646;BME280;7922;43.622;1.476;2023-03-14T09:57:17;100250.56;;;10.04;91.33
15646;BME280;7922;43.622;1.476;2023-03-14T09:59:45;100206.34;;;9.83;91.76
15646;BME280;7922;43.622;1.476;2023-03-14T10:02:21;100150.28;;;9.48;91.29
15646;BME280;7922;43.622;1.476;2023-03-14T10:04:49;100109.59;;;9.27;92.56
15646;BME280;7922;43.622;1.476;2023-03-14T10:07:28;100250.81;;;10.22;92.33
15646;BME280;7922;43.622;1.476;2023-03-14T10:09:53;100214.72;;;10.19;92.62
15646;BME280;7922;43.622;1.476;2023-03-14T10:12:19;100225.00;;;10.52;89.74
15646;BME280;7922;43.622;1.476;2023-03-14T10:14:54;100265.06;;;10.90;88.99
15646;BME280;7922;43.622;1.476;2023-03-14T10:17:20;100195.53;;;10.83;87.21
15646;BME280;7922;43.622;1.476;2023-03-14T10:19:56;100118.75;;;10.38;87.18
15646;BME280;7922;43.622;1.476;2023-03-14T10:22:24;100222.16;;;11.02;86.05
15646;BME280;7922;43.622;1.476;2023-03-14T10:24:54;100223.31;;;10.95;85.50
15646;BME280;7922;43.622;1.476;2023-03-14T10:27:22;100228.97;;;10.85;86.03
15646;BME280;7922;43.622;1.476;2023-03-14T10:29:53;100158.94;;;10.24;84.21
15646;BME280;7922;43.622;1.476;2023-03-14T10:32:20;100226.09;;;10.92;83.99
15646;BME280;7922;43.622;1.476;2023-03-14T10:35:04;100258.41;;;11.01;85.07
15646;BME280;7922;43.622;1.476;2023-03-14T10:37:30;100241.19;;;10.44;86.65
15646;BME280;7922;43.622;1.476;2023-03-14T10:39:59;100142.50;;;9.44;87.26
15646;BME280;7922;43.622;1.476;2023-03-14T10:42:30;100292.16;;;10.01;81.88
15646;BME280;7922;43.622;1.476;2023-03-14T10:44:58;100159.91;;;8.71;87.32
15646;BME280;7922;43.622;1.476;2023-03-14T10:47:27;100173.75;;;8.79;84.79
15646;BME280;7922;43.622;1.476;2023-03-14T10:49:52;100136.09;;;8.46;86.25
15646;BME280;7922;43.622;1.476;2023-03-14T10:52:22;100230.28;;;9.28;87.07
15646;BME280;7922;43.622;1.476;2023-03-14T10:54:58;100274.25;;;9.57;86.25
15646;BME280;7922;43.622;1.476;2023-03-14T10:57:25;100154.94;;;8.88;87.22
15646;BME280;7922;43.622;1.476;2023-03-14T10:59:50;100182.00;;;8.68;87.95
15646;BME280;7922;43.622;1.476;2023-03-14T11:02:31;100327.59;;;8.86;89.84
15646;BME280;7922;43.622;1.476;2023-03-14T11:07:43;100315.00;;;8.66;91.75
15646;BME280;7922;43.622;1.476;2023-03-14T11:13:55;100297.13;;;8.76;91.32
15646;BME280;7922;43.622;1.476;2023-03-14T11:16:36;100269.38;;;8.90;89.08
15646;BME280;7922;43.622;1.476;2023-03-14T11:19:20;100246.06;;;9.03;89.05
15646;BME280;7922;43.622;1.476;2023-03-14T11:26:59;100299.13;;;10.03;86.39
15646;BME280;7922;43.622;1.476;2023-03-14T11:29:41;100195.84;;;9.56;86.06
15646;BME280;7922;43.622;1.476;2023-03-14T11:32:16;100155.56;;;9.23;86.12
15646;BME280;7922;43.622;1.476;2023-03-14T11:34:50;100299.03;;;10.06;87.42
15646;BME280;7922;43.622;1.476;2023-03-14T11:37:28;100229.84;;;9.67;87.11
15646;BME280;7922;43.622;1.476;2023-03-14T11:40:05;100177.31;;;9.31;85.63
15646;BME280;7922;43.622;1.476;2023-03-14T11:42:33;100223.59;;;9.70;83.51
15646;BME280;7922;43.622;1.476;2023-03-14T11:45:00;100200.25;;;9.56;86.03
15646;BME280;7922;43.622;1.476;2023-03-14T11:47:37;100193.66;;;9.68;86.78
15646;BME280;7922;43.622;1.476;2023-03-14T11:50:15;100191.78;;;9.71;85.02
15646;BME280;7922;43.622;1.476;2023-03-14T11:52:48;100153.78;;;9.49;83.32
15646;BME280;7922;43.622;1.476;2023-03-14T11:57:44;100247.00;;;10.05;84.87
15646;BME280;7922;43.622;1.476;2023-03-14T12:00:22;100299.25;;;10.25;84.99
15646;BME280;7922;43.622;1.476;2023-03-14T12:11:24;100280.22;;;10.63;84.05
15646;BME280;7922;43.622;1.476;2023-03-14T12:13:53;100138.56;;;9.80;84.21
15646;BME280;7922;43.622;1.476;2023-03-14T12:18:50;100171.28;;;10.25;83.69
15646;BME280;7922;43.622;1.476;2023-03-14T12:21:16;100105.72;;;10.09;83.99
15646;BME280;7922;43.622;1.476;2023-03-14T12:23:51;100283.13;;;11.02;83.34
15646;BME280;7922;43.622;1.476;2023-03-14T12:26:23;100199.03;;;10.38;83.74
15646;BME280;7922;43.622;1.476;2023-03-14T12:39:31;100263.88;;;11.41;85.92
15646;BME280;7922;43.622;1.476;2023-03-14T12:42:03;100134.75;;;11.21;83.04
15646;BME280;7922;43.622;1.476;2023-03-14T12:49:39;100130.03;;;10.87;83.79
15646;BME280;7922;43.622;1.476;2023-03-14T12:52:13;100190.59;;;11.38;83.61
15646;BME280;7922;43.622;1.476;2023-03-14T12:54:59;100226.09;;;11.56;83.25
15646;BME280;7922;43.622;1.476;2023-03-14T12:57:44;100124.41;;;11.35;82.66
15646;BME280;7922;43.622;1.476;2023-03-14T13:00:34;100242.13;;;12.35;81.88
15646;BME280;7922;43.622;1.476;2023-03-14T13:05:52;100145.19;;;11.46;83.13
15646;BME280;7922;43.622;1.476;2023-03-14T13:08:36;100182.09;;;11.50;83.62
15646;BME280;7922;43.622;1.476;2023-03-14T13:11:05;100188.44;;;12.28;81.70
15646;BME280;7922;43.622;1.476;2023-03-14T13:13:34;100182.91;;;12.33;81.75
15646;BME280;7922;43.622;1.476;2023-03-14T13:16:01;100112.41;;;11.88;80.26
15646;BME280;7922;43.622;1.476;2023-03-14T13:18:36;100156.88;;;12.58;80.07
15646;BME280;7922;43.622;1.476;2023-03-14T13:21:07;100106.44;;;12.39;77.84
15646;BME280;7922;43.622;1.476;2023-03-14T13:23:37;100184.19;;;12.98;76.35
15646;BME280;7922;43.622;1.476;2023-03-14T13:26:03;100060.84;;;12.29;77.19
15646;BME280;7922;43.622;1.476;2023-03-14T13:28:30;100172.50;;;13.19;76.57
15646;BME280;7922;43.622;1.476;2023-03-14T13:30:58;100199.63;;;13.09;74.45
15646;BME280;7922;43.622;1.476;2023-03-14T13:33:24;100113.72;;;12.17;73.26
15646;BME280;7922;43.622;1.476;2023-03-14T13:35:58;100096.88;;;11.97;73.87
15646;BME280;7922;43.622;1.476;2023-03-14T13:38:27;100195.31;;;12.32;76.56
15646;BME280;7922;43.622;1.476;2023-03-14T13:40:58;100158.50;;;11.85;78.58
15646;BME280;7922;43.622;1.476;2023-03-14T13:43:27;100091.78;;;10.50;82.95
15646;BME280;7922;43.622;1.476;2023-03-14T13:45:56;100275.19;;;9.55;88.74
15646;BME280;7922;43.622;1.476;2023-03-14T13:48:28;100136.41;;;7.75;93.85
15646;BME280;7922;43.622;1.476;2023-03-14T13:50:56;100230.78;;;7.94;95.80
15646;BME280;7922;43.622;1.476;2023-03-14T13:53:24;100188.09;;;7.80;96.24
15646;BME280;7922;43.622;1.476;2023-03-14T13:55:50;100127.03;;;7.64;94.67
15646;BME280;7922;43.622;1.476;2023-03-14T13:58:27;100127.13;;;7.91;94.57
15646;BME280;7922;43.622;1.476;2023-03-14T14:00:55;100203.72;;;8.50;92.96
15646;BME280;7922;43.622;1.476;2023-03-14T14:03:22;100200.16;;;8.51;93.89
15646;BME280;7922;43.622;1.476;2023-03-14T14:05:47;100227.78;;;8.67;94.49
15646;BME280;7922;43.622;1.476;2023-03-14T14:08:13;100254.63;;;8.83;93.85